createdAt,value
2023-05-12T00:00:26.178Z,15.30
2023-05-12T00:02:53.123Z,15.10
2023-05-12T00:05:20.265Z,15.20
2023-05-12T00:07:47.124Z,15.10
2023-05-12T00:10:14.597Z,15.10
2023-05-12T00:12:42.224Z,15.10
2023-05-12T00:15:09.840Z,15.10
2023-05-12T00:17:37.063Z,15.20
2023-05-12T00:20:09.212Z,15.20
2023-05-12T00:22:37.490Z,15.20
2023-05-12T00:25:04.921Z,15.20
2023-05-12T00:27:33.218Z,15.20
2023-05-12T00:30:00.419Z,15.30
2023-05-12T00:32:27.739Z,15.30
2023-05-12T00:34:54.698Z,15.30
2023-05-12T00:37:21.799Z,15.20
2023-05-12T00:39:48.826Z,15.30
2023-05-12T00:42:15.870Z,15.30
2023-05-12T00:44:42.753Z,15.30
2023-05-12T00:47:09.955Z,15.30
2023-05-12T00:49:37.186Z,15.20
2023-05-12T00:52:04.472Z,15.20
2023-05-12T00:54:32.162Z,15.30
2023-05-12T00:56:58.995Z,15.30
2023-05-12T00:59:25.912Z,15.20
2023-05-12T01:01:53.079Z,15.20
2023-05-12T01:04:20.026Z,15.20
2023-05-12T01:06:58.077Z,15.10
2023-05-12T01:09:25.469Z,15.10
2023-05-12T01:11:52.556Z,15.00
2023-05-12T01:14:19.501Z,15.00
2023-05-12T01:16:53.659Z,15.10
2023-05-12T01:19:48.154Z,15.00
2023-05-12T01:22:16.146Z,15.00
2023-05-12T01:24:56.057Z,15.10
2023-05-12T01:27:25.939Z,15.00
2023-05-12T01:29:54.650Z,14.90
2023-05-12T01:32:22.321Z,14.90
2023-05-12T01:34:50.695Z,14.90
2023-05-12T01:37:17.625Z,14.90
2023-05-12T01:39:44.699Z,14.90
2023-05-12T01:42:12.114Z,14.90
2023-05-12T01:44:39.105Z,14.90
2023-05-12T01:47:09.870Z,15.00
2023-05-12T01:49:38.048Z,15.00
2023-05-12T01:52:05.439Z,14.90
2023-05-12T01:54:32.535Z,15.00
2023-05-12T01:56:59.440Z,15.00
2023-05-12T01:59:26.847Z,15.00
2023-05-12T02:01:53.928Z,15.00
2023-05-12T02:04:20.880Z,15.00
2023-05-12T02:06:48.032Z,15.00
2023-05-12T02:09:15.348Z,15.00
2023-05-12T02:11:42.361Z,15.00
2023-05-12T02:14:09.538Z,15.10
2023-05-12T02:16:36.787Z,15.00
2023-05-12T02:19:04.137Z,15.00
2023-05-12T02:21:31.373Z,15.00
2023-05-12T02:23:58.286Z,14.90
2023-05-12T02:26:25.314Z,14.90
2023-05-12T02:28:52.288Z,14.90
2023-05-12T02:31:19.206Z,14.90
2023-05-12T02:33:46.214Z,14.80
2023-05-12T02:36:13.131Z,14.80
2023-05-12T02:38:40.396Z,14.70
2023-05-12T02:41:07.582Z,14.80
2023-05-12T02:43:34.540Z,14.80
2023-05-12T02:46:01.734Z,14.70
2023-05-12T02:48:28.771Z,14.70
2023-05-12T02:50:56.052Z,14.60
2023-05-12T02:53:22.969Z,14.50
2023-05-12T02:55:50.134Z,14.50
2023-05-12T02:58:17.166Z,14.40
2023-05-12T03:00:44.270Z,14.40
2023-05-12T03:03:11.368Z,14.40
2023-05-12T03:05:38.355Z,14.40
2023-05-12T03:08:05.477Z,14.30
2023-05-12T03:10:32.548Z,14.20
2023-05-12T03:12:59.425Z,14.20
2023-05-12T03:15:26.314Z,14.30
2023-05-12T03:17:53.240Z,14.20
2023-05-12T03:20:20.361Z,14.20
2023-05-12T03:22:47.495Z,14.20
2023-05-12T03:25:15.093Z,14.20
2023-05-12T03:27:42.153Z,14.20
2023-05-12T03:30:09.528Z,14.20
2023-05-12T03:32:39.175Z,14.20
2023-05-12T03:35:07.439Z,14.20
2023-05-12T03:37:34.374Z,14.10
2023-05-12T03:40:01.306Z,14.10
2023-05-12T03:42:28.552Z,14.10
2023-05-12T03:44:55.555Z,14.10
2023-05-12T03:47:22.439Z,14.10
2023-05-12T03:49:49.277Z,14.10
2023-05-12T03:52:16.233Z,14.10
2023-05-12T03:54:43.222Z,14.10
2023-05-12T03:57:10.092Z,14.10
2023-05-12T03:59:36.980Z,14.10
2023-05-12T04:02:04.278Z,14.20
2023-05-12T04:04:31.146Z,14.20
2023-05-12T04:06:59.417Z,14.20
2023-05-12T04:09:26.218Z,14.20
2023-05-12T04:11:53.058Z,14.30
2023-05-12T04:14:26.530Z,14.30
2023-05-12T04:16:58.936Z,14.40
2023-05-12T04:19:25.884Z,14.50
2023-05-12T04:21:52.705Z,14.50
2023-05-12T04:24:19.540Z,14.50
2023-05-12T04:26:46.418Z,14.60
2023-05-12T04:29:13.396Z,14.60
2023-05-12T04:31:41.401Z,14.70
2023-05-12T04:34:08.300Z,14.80
2023-05-12T04:36:35.364Z,14.80
2023-05-12T04:39:02.378Z,14.90
2023-05-12T04:41:29.736Z,14.90
2023-05-12T04:46:26.370Z,15.00
2023-05-12T04:48:53.349Z,15.00
2023-05-12T04:51:20.171Z,14.90
2023-05-12T04:53:47.021Z,15.00
2023-05-12T04:56:13.887Z,14.90
2023-05-12T04:58:41.052Z,14.90
2023-05-12T05:01:08.308Z,14.90
2023-05-12T05:03:35.349Z,15.00
2023-05-12T05:06:02.281Z,15.00
2023-05-12T05:08:29.100Z,15.10
2023-05-12T05:10:56.039Z,15.10
2023-05-12T05:13:23.020Z,15.20
2023-05-12T05:15:54.070Z,15.20
2023-05-12T05:18:23.871Z,15.30
2023-05-12T05:20:57.906Z,15.30
2023-05-12T05:23:26.051Z,15.30
2023-05-12T05:25:53.068Z,15.30
2023-05-12T05:28:19.983Z,15.40
2023-05-12T05:30:47.156Z,15.50
2023-05-12T05:33:14.060Z,15.50
2023-05-12T05:35:42.454Z,15.60
2023-05-12T05:38:09.449Z,15.70
2023-05-12T05:40:49.291Z,15.80
2023-05-12T05:43:19.538Z,15.70
2023-05-12T05:45:46.449Z,15.70
2023-05-12T05:48:13.497Z,15.80
2023-05-12T05:50:40.695Z,15.90
2023-05-12T05:53:07.525Z,15.80
2023-05-12T05:55:34.526Z,15.80
2023-05-12T05:58:03.993Z,15.80
2023-05-12T06:00:30.876Z,15.90
2023-05-12T06:02:57.813Z,15.90
2023-05-12T06:05:24.769Z,15.90
2023-05-12T06:07:51.661Z,16.10
2023-05-12T06:10:18.772Z,16.20
2023-05-12T06:12:45.952Z,16.40
2023-05-12T06:15:12.950Z,16.40
2023-05-12T06:17:40.009Z,16.40
2023-05-12T06:20:07.714Z,16.40
2023-05-12T06:22:37.289Z,16.40
2023-05-12T06:25:04.432Z,16.40
2023-05-12T06:27:31.349Z,16.60
2023-05-12T06:29:58.248Z,16.70
2023-05-12T06:32:25.298Z,16.80
2023-05-12T06:34:52.346Z,16.80
2023-05-12T06:37:19.283Z,16.90
2023-05-12T06:39:46.158Z,17.10
2023-05-12T06:42:13.077Z,17.30
2023-05-12T06:44:41.921Z,17.40
2023-05-12T06:47:09.535Z,17.30
2023-05-12T06:49:38.055Z,17.40
2023-05-12T06:52:06.473Z,17.50
2023-05-12T06:54:33.788Z,17.70
2023-05-12T06:57:00.941Z,17.90
2023-05-12T06:59:27.941Z,18.10
2023-05-12T07:01:55.033Z,18.20
2023-05-12T07:04:22.670Z,18.20
2023-05-12T07:06:49.727Z,18.30
2023-05-12T07:09:18.681Z,18.60
2023-05-12T07:11:46.075Z,19.00
2023-05-12T07:14:13.114Z,19.40
2023-05-12T07:16:39.991Z,19.50
2023-05-12T07:19:09.159Z,19.40
2023-05-12T07:21:37.244Z,19.50
2023-05-12T07:24:06.244Z,19.60
2023-05-12T07:26:33.716Z,19.50
2023-05-12T07:29:01.318Z,19.50
2023-05-12T07:31:28.801Z,19.70
2023-05-12T07:33:55.964Z,19.70
2023-05-12T07:36:22.912Z,19.80
2023-05-12T07:38:50.097Z,20.00
2023-05-12T07:41:17.901Z,20.80
2023-05-12T07:43:45.484Z,21.80
2023-05-12T07:46:12.605Z,22.40
2023-05-12T07:48:40.445Z,22.60
2023-05-12T07:51:08.431Z,22.40
2023-05-12T07:53:35.527Z,22.20
2023-05-12T07:56:02.541Z,22.20
2023-05-12T07:58:29.872Z,22.30
2023-05-12T08:00:59.126Z,22.80
2023-05-12T08:03:26.528Z,23.80
2023-05-12T08:05:53.516Z,24.60
2023-05-12T08:08:20.481Z,24.50
2023-05-12T08:10:47.335Z,24.20
2023-05-12T08:13:14.268Z,23.80
2023-05-12T08:15:41.271Z,23.30
2023-05-12T08:18:08.651Z,23.00
2023-05-12T08:20:36.091Z,22.70
2023-05-12T08:23:03.039Z,22.40
2023-05-12T08:25:30.739Z,22.20
2023-05-12T08:27:59.558Z,21.90
2023-05-12T08:30:27.151Z,21.70
2023-05-12T08:32:57.589Z,21.50
2023-05-12T08:35:28.002Z,21.40
2023-05-12T08:37:55.025Z,21.30
2023-05-12T08:40:23.656Z,21.40
2023-05-12T08:43:23.423Z,21.40
2023-05-12T08:45:50.952Z,21.30
2023-05-12T08:48:19.962Z,21.20
2023-05-12T08:50:50.031Z,20.90
2023-05-12T08:53:20.690Z,20.90
2023-05-12T08:57:08.332Z,20.80
2023-05-12T08:58:41.734Z,20.90
2023-05-12T09:01:12.127Z,20.70
2023-05-12T09:03:39.601Z,20.80
2023-05-12T09:06:08.535Z,20.90
2023-05-12T09:08:36.778Z,21.10
2023-05-12T09:11:04.320Z,21.20
2023-05-12T09:13:50.405Z,21.50
2023-05-12T09:16:22.542Z,21.70
2023-05-12T09:18:55.233Z,21.90
2023-05-12T09:21:23.421Z,21.90
2023-05-12T09:24:03.337Z,22.00
2023-05-12T09:26:30.557Z,22.00
2023-05-12T09:29:08.882Z,21.90
2023-05-12T09:31:36.585Z,21.80
2023-05-12T09:34:09.045Z,21.70
2023-05-12T09:36:36.682Z,21.60
2023-05-12T09:39:09.141Z,21.40
2023-05-12T09:41:41.072Z,21.40
2023-05-12T09:44:09.676Z,21.30
2023-05-12T09:46:37.241Z,21.20
2023-05-12T09:49:04.433Z,21.20
2023-05-12T09:51:31.403Z,21.20
2023-05-12T09:53:58.870Z,21.20
2023-05-12T09:56:29.156Z,21.10
2023-05-12T09:58:57.160Z,21.40
2023-05-12T10:01:25.237Z,21.50
2023-05-12T10:03:57.729Z,21.60
2023-05-12T10:06:33.829Z,21.60
2023-05-12T10:09:28.834Z,21.50
2023-05-12T10:11:58.084Z,21.50
2023-05-12T10:14:25.818Z,21.40
2023-05-12T10:16:54.007Z,21.40
2023-05-12T10:19:22.763Z,21.50
2023-05-12T10:21:50.811Z,21.70
2023-05-12T10:24:20.769Z,21.80
2023-05-12T10:26:47.821Z,21.90
2023-05-12T10:29:18.360Z,22.00
2023-05-12T10:31:46.406Z,22.20
2023-05-12T10:34:21.595Z,22.20
2023-05-12T10:36:50.897Z,22.10
2023-05-12T10:39:18.085Z,22.10
2023-05-12T10:41:45.188Z,22.30
2023-05-12T10:44:12.284Z,22.30
2023-05-12T10:46:39.789Z,22.40
2023-05-12T10:49:07.959Z,22.60
2023-05-12T10:51:45.068Z,22.90
2023-05-12T10:54:18.763Z,23.20
2023-05-12T10:56:46.377Z,23.30
2023-05-12T10:59:22.877Z,23.40
2023-05-12T11:02:15.509Z,23.40
2023-05-12T11:04:46.934Z,23.50
2023-05-12T11:07:16.955Z,23.40
2023-05-12T11:12:17.096Z,23.20
2023-05-12T11:14:45.402Z,23.00
2023-05-12T11:17:13.190Z,22.80
2023-05-12T11:19:44.551Z,22.60
2023-05-12T11:22:15.938Z,22.80
2023-05-12T11:24:43.208Z,22.80
2023-05-12T11:27:15.611Z,22.70
2023-05-12T11:29:43.589Z,22.70
2023-05-12T11:32:12.513Z,22.60
2023-05-12T11:34:39.609Z,22.70
2023-05-12T11:37:06.832Z,22.70
2023-05-12T11:39:34.078Z,22.70
2023-05-12T11:42:12.887Z,22.70
2023-05-12T11:44:48.540Z,22.70
2023-05-12T11:47:17.171Z,22.50
2023-05-12T11:49:53.506Z,22.50
2023-05-12T11:52:22.638Z,22.60
2023-05-12T11:54:56.969Z,22.90
2023-05-12T11:57:34.384Z,23.10
2023-05-12T12:00:06.969Z,23.20
2023-05-12T12:02:43.844Z,23.30
2023-05-12T12:05:21.107Z,23.20
2023-05-12T12:07:48.525Z,23.10
2023-05-12T12:10:18.621Z,23.30
2023-05-12T12:12:46.493Z,23.40
2023-05-12T12:15:19.137Z,23.40
2023-05-12T12:17:46.581Z,23.30
2023-05-12T12:20:13.675Z,23.20
2023-05-12T12:22:40.723Z,23.00
2023-05-12T12:25:08.335Z,22.80
2023-05-12T12:27:35.548Z,22.70
2023-05-12T12:30:02.878Z,22.60
2023-05-12T12:32:29.869Z,22.50
2023-05-12T12:35:01.655Z,22.60
2023-05-12T12:37:28.699Z,22.80
2023-05-12T12:39:55.690Z,23.00
2023-05-12T12:42:22.749Z,23.00
2023-05-12T12:44:51.406Z,22.80
2023-05-12T12:47:18.569Z,22.80
2023-05-12T12:49:45.567Z,22.60
2023-05-12T12:52:12.698Z,22.70
2023-05-12T12:54:39.614Z,22.70
2023-05-12T12:57:06.596Z,22.90
2023-05-12T12:59:33.834Z,23.00
2023-05-12T13:02:01.380Z,23.10
2023-05-12T13:04:28.608Z,23.20
2023-05-12T13:06:58.435Z,23.30
2023-05-12T13:09:25.663Z,23.40
2023-05-12T13:11:55.401Z,23.60
2023-05-12T13:14:23.010Z,23.70
2023-05-12T13:16:50.172Z,23.90
2023-05-12T13:19:21.601Z,23.90
2023-05-12T13:21:49.544Z,24.00
2023-05-12T13:24:16.650Z,23.90
2023-05-12T13:26:52.401Z,23.90
2023-05-12T13:29:27.221Z,23.70
2023-05-12T13:31:57.345Z,23.50
2023-05-12T13:34:24.574Z,23.40
2023-05-12T13:36:51.962Z,23.20
2023-05-12T13:39:19.777Z,23.20
2023-05-12T13:41:47.080Z,23.30
2023-05-12T13:44:14.200Z,23.40
2023-05-12T13:46:41.408Z,23.40
2023-05-12T13:49:09.111Z,23.40
2023-05-12T13:51:36.655Z,23.40
2023-05-12T13:54:03.652Z,23.40
2023-05-12T13:56:31.869Z,23.40
2023-05-12T13:59:01.512Z,23.30
2023-05-12T14:01:28.902Z,23.40
2023-05-12T14:03:56.134Z,23.50
2023-05-12T14:06:23.254Z,23.50
2023-05-12T14:08:50.266Z,23.60
2023-05-12T14:11:17.647Z,23.70
2023-05-12T14:13:44.650Z,23.60
2023-05-12T14:16:14.187Z,23.60
2023-05-12T14:18:43.321Z,23.60
2023-05-12T14:21:11.136Z,23.70
2023-05-12T14:23:38.095Z,23.80
2023-05-12T14:26:05.250Z,23.90
2023-05-12T14:28:32.613Z,23.80
2023-05-12T14:30:59.723Z,23.60
2023-05-12T14:33:27.167Z,23.40
2023-05-12T14:36:05.666Z,23.30
2023-05-12T14:38:33.337Z,23.30
2023-05-12T14:41:00.265Z,23.20
2023-05-12T14:43:27.150Z,23.20
2023-05-12T14:45:57.561Z,23.10
2023-05-12T14:48:27.691Z,23.10
2023-05-12T14:50:57.922Z,23.10
2023-05-12T14:53:24.929Z,23.20
2023-05-12T14:55:52.289Z,23.30
2023-05-12T14:58:21.767Z,23.30
2023-05-12T15:00:51.097Z,23.60
2023-05-12T15:03:18.594Z,23.70
2023-05-12T15:06:04.987Z,23.80
2023-05-12T15:08:33.696Z,23.90
2023-05-12T15:11:00.677Z,23.90
2023-05-12T15:13:27.689Z,23.90
2023-05-12T15:15:56.633Z,23.70
2023-05-12T15:18:24.089Z,23.50
2023-05-12T15:20:51.513Z,23.30
2023-05-12T15:23:18.445Z,23.10
2023-05-12T15:25:45.354Z,23.00
2023-05-12T15:28:12.246Z,22.80
2023-05-12T15:30:39.454Z,22.80
2023-05-12T15:33:06.960Z,22.80
2023-05-12T15:35:34.118Z,22.80
2023-05-12T15:38:01.350Z,23.00
2023-05-12T15:40:30.695Z,23.10
2023-05-12T15:42:57.945Z,23.20
2023-05-12T15:45:25.096Z,23.30
2023-05-12T15:47:52.177Z,23.40
2023-05-12T15:50:22.432Z,23.40
2023-05-12T15:52:49.684Z,23.40
2023-05-12T15:55:16.870Z,23.20
2023-05-12T15:57:43.932Z,23.10
2023-05-12T16:00:11.492Z,23.00
2023-05-12T16:02:38.893Z,22.80
2023-05-12T16:05:06.208Z,22.70
2023-05-12T16:07:33.242Z,22.70
2023-05-12T16:10:00.658Z,22.70
2023-05-12T16:12:27.602Z,22.60
2023-05-12T16:14:54.446Z,22.50
2023-05-12T16:17:22.439Z,22.60
2023-05-12T16:19:50.296Z,22.50
2023-05-12T16:22:17.262Z,22.50
2023-05-12T16:24:44.287Z,22.40
2023-05-12T16:27:11.442Z,22.40
2023-05-12T16:29:38.417Z,22.30
2023-05-12T16:32:05.804Z,22.30
2023-05-12T16:34:32.672Z,22.30
2023-05-12T16:36:59.623Z,22.30
2023-05-12T16:39:26.872Z,22.40
2023-05-12T16:41:53.801Z,22.50
2023-05-12T16:44:20.703Z,22.60
2023-05-12T16:46:47.729Z,22.60
2023-05-12T16:49:15.037Z,22.70
2023-05-12T16:51:42.137Z,22.70
2023-05-12T16:54:09.219Z,22.70
2023-05-12T16:56:36.088Z,22.70
2023-05-12T16:59:03.624Z,22.70
2023-05-12T17:01:31.685Z,22.50
2023-05-12T17:03:58.821Z,22.40
2023-05-12T17:06:25.953Z,22.30
2023-05-12T17:08:52.913Z,22.20
2023-05-12T17:11:19.813Z,22.20
2023-05-12T17:13:46.690Z,22.10
2023-05-12T17:16:13.756Z,22.10
2023-05-12T17:21:11.596Z,21.90
2023-05-12T17:23:38.630Z,21.80
2023-05-12T17:26:05.677Z,21.80
2023-05-12T17:28:32.635Z,21.70
2023-05-12T17:31:01.304Z,21.70
2023-05-12T17:33:29.124Z,21.70
2023-05-12T17:36:10.896Z,21.60
2023-05-12T17:38:40.714Z,21.70
2023-05-12T17:41:07.869Z,21.60
2023-05-12T17:43:34.847Z,21.60
2023-05-12T17:46:01.930Z,21.50
2023-05-12T17:48:32.982Z,21.40
2023-05-12T17:51:00.909Z,21.40
2023-05-12T17:53:27.885Z,21.40
2023-05-12T17:56:07.341Z,21.30
2023-05-12T17:58:42.714Z,21.30
2023-05-12T18:01:09.739Z,21.20
2023-05-12T18:03:37.895Z,21.10
2023-05-12T18:06:05.586Z,21.10
2023-05-12T18:08:32.551Z,21.10
2023-05-12T18:10:59.401Z,21.10
2023-05-12T18:13:26.269Z,20.90
2023-05-12T18:15:53.150Z,20.70
2023-05-12T18:18:20.193Z,20.90
2023-05-12T18:20:47.081Z,20.80
2023-05-12T18:23:14.113Z,20.80
2023-05-12T18:25:41.217Z,20.70
2023-05-12T18:28:08.455Z,20.70
2023-05-12T18:30:35.608Z,20.70
2023-05-12T18:33:02.573Z,20.60
2023-05-12T18:35:29.736Z,20.50
2023-05-12T18:37:57.002Z,20.50
2023-05-12T18:40:24.080Z,20.40
2023-05-12T18:42:51.055Z,20.40
2023-05-12T18:45:18.642Z,20.30
2023-05-12T18:47:46.199Z,20.20
2023-05-12T18:50:13.392Z,20.20
2023-05-12T18:52:40.541Z,20.10
2023-05-12T18:55:08.138Z,20.00
2023-05-12T18:57:35.173Z,19.90
2023-05-12T19:00:02.148Z,19.90
2023-05-12T19:02:29.123Z,19.80
2023-05-12T19:04:56.230Z,19.70
2023-05-12T19:07:23.530Z,19.60
2023-05-12T19:09:50.655Z,19.40
2023-05-12T19:12:20.102Z,19.40
2023-05-12T19:14:46.976Z,19.30
2023-05-12T19:17:13.820Z,19.20
2023-05-12T19:19:40.783Z,19.20
2023-05-12T19:22:07.707Z,19.20
2023-05-12T19:24:34.716Z,19.10
2023-05-12T19:27:01.870Z,19.00
2023-05-12T19:29:28.848Z,18.90
2023-05-12T19:31:55.921Z,18.90
2023-05-12T19:34:23.846Z,18.80
2023-05-12T19:36:52.997Z,18.70
2023-05-12T19:39:19.956Z,18.60
2023-05-12T19:41:46.970Z,18.60
2023-05-12T19:44:13.869Z,18.50
2023-05-12T19:46:40.862Z,18.40
2023-05-12T19:49:08.068Z,18.40
2023-05-12T19:51:35.260Z,18.30
2023-05-12T19:54:04.731Z,18.30
2023-05-12T19:56:32.222Z,18.20
2023-05-12T19:58:59.178Z,18.10
2023-05-12T20:01:26.280Z,18.10
2023-05-12T20:03:53.577Z,18.00
2023-05-12T20:06:22.452Z,17.90
2023-05-12T20:08:49.418Z,17.90
2023-05-12T20:11:16.349Z,17.80
2023-05-12T20:13:43.259Z,17.80
2023-05-12T20:16:10.126Z,17.70
2023-05-12T20:18:37.239Z,17.70
2023-05-12T20:21:04.272Z,17.60
2023-05-12T20:23:31.463Z,17.60
2023-05-12T20:25:58.385Z,17.50
2023-05-12T20:28:25.415Z,17.50
2023-05-12T20:30:52.360Z,17.40
2023-05-12T20:33:19.488Z,17.40
2023-05-12T20:35:46.471Z,17.30
2023-05-12T20:38:16.240Z,17.30
2023-05-12T20:40:43.432Z,17.30
2023-05-12T20:43:10.716Z,17.30
2023-05-12T20:45:40.101Z,17.20
2023-05-12T20:48:07.820Z,17.20
2023-05-12T20:50:35.079Z,17.20
2023-05-12T20:53:02.187Z,17.10
2023-05-12T20:55:29.306Z,17.10
2023-05-12T20:57:56.396Z,17.10
2023-05-12T21:00:23.676Z,17.10
2023-05-12T21:02:52.424Z,17.00
2023-05-12T21:05:20.610Z,17.00
2023-05-12T21:07:48.046Z,17.00
2023-05-12T21:10:15.066Z,16.90
2023-05-12T21:12:44.669Z,16.90
2023-05-12T21:15:13.085Z,16.90
2023-05-12T21:17:40.991Z,16.80
2023-05-12T21:20:10.036Z,16.70
2023-05-12T21:22:37.845Z,16.70
2023-05-12T21:25:06.069Z,16.70
2023-05-12T21:27:33.072Z,16.60
2023-05-12T21:30:00.237Z,16.60
2023-05-12T21:32:27.841Z,16.50
2023-05-12T21:34:54.910Z,16.50
2023-05-12T21:37:21.982Z,16.40
2023-05-12T21:39:48.972Z,16.40
2023-05-12T21:42:16.038Z,16.30
2023-05-12T21:44:43.117Z,16.30
2023-05-12T21:47:10.397Z,16.00
2023-05-12T21:49:37.556Z,16.10
2023-05-12T21:52:04.877Z,16.10
2023-05-12T21:54:33.664Z,16.00
2023-05-12T21:57:01.228Z,16.00
2023-05-12T21:59:29.208Z,16.00
2023-05-12T22:01:56.489Z,15.90
2023-05-12T22:04:23.822Z,15.90
2023-05-12T22:06:50.982Z,15.90
2023-05-12T22:09:18.400Z,15.90
2023-05-12T22:11:45.320Z,15.80
2023-05-12T22:14:12.651Z,15.80
2023-05-12T22:16:42.377Z,15.70
2023-05-12T22:19:10.148Z,15.70
2023-05-12T22:21:37.454Z,15.70
2023-05-12T22:24:04.601Z,15.50
2023-05-12T22:26:31.554Z,15.60
2023-05-12T22:28:58.903Z,15.50
2023-05-12T22:31:26.003Z,15.50
2023-05-12T22:33:53.045Z,15.30
2023-05-12T22:36:20.160Z,15.40
2023-05-12T22:38:47.308Z,15.40
2023-05-12T22:41:14.399Z,15.40
2023-05-12T22:43:41.481Z,15.30
2023-05-12T22:46:09.702Z,15.30
2023-05-12T22:48:39.354Z,15.30
2023-05-12T22:51:06.905Z,15.30
2023-05-12T22:53:36.012Z,15.40
2023-05-12T22:56:03.693Z,15.30
2023-05-12T22:58:30.738Z,15.20
2023-05-12T23:00:57.789Z,15.20
2023-05-12T23:03:24.775Z,15.20
2023-05-12T23:05:51.822Z,15.10
2023-05-12T23:08:21.174Z,15.10
2023-05-12T23:10:48.133Z,15.10
2023-05-12T23:13:15.029Z,15.10
2023-05-12T23:15:41.922Z,15.00
2023-05-12T23:18:09.257Z,15.00
2023-05-12T23:20:36.303Z,14.90
2023-05-12T23:23:03.256Z,14.90
2023-05-12T23:25:30.358Z,14.80
2023-05-12T23:27:57.473Z,14.90
2023-05-12T23:30:24.690Z,14.80
2023-05-12T23:32:51.979Z,14.80
2023-05-12T23:35:19.006Z,14.80
2023-05-12T23:37:45.959Z,14.80
2023-05-12T23:40:13.006Z,14.80
2023-05-12T23:42:40.066Z,14.80
2023-05-12T23:45:07.549Z,14.80
2023-05-12T23:47:34.610Z,14.70
2023-05-12T23:50:01.736Z,14.70
2023-05-12T23:52:28.914Z,14.70
2023-05-12T23:54:56.091Z,14.60
2023-05-12T23:57:23.010Z,14.60
2023-05-12T23:59:50.057Z,14.60
